sensor_id;sensor_type;location;lat;lon;timestamp;P1;durP1;ratioP1;P2;durP2;ratioP2
8040;SDS011;4063;48.140;10.250;2023-05-10T00:00:40;0.20;;;0.20;;
8040;SDS011;4063;48.140;10.250;2023-05-10T00:03:06;0.10;;;0.10;;
8040;SDS011;4063;48.140;10.250;2023-05-10T00:05:32;0.20;;;0.20;;
8040;SDS011;4063;48.140;10.250;2023-05-10T00:07:58;0.20;;;0.20;;
8040;SDS011;4063;48.140;10.250;2023-05-10T00:10:24;0.20;;;0.20;;
8040;SDS011;4063;48.140;10.250;2023-05-10T00:12:50;0.20;;;0.20;;
8040;SDS011;4063;48.140;10.250;2023-05-10T00:15:16;0.10;;;0.10;;
8040;SDS011;4063;48.140;10.250;2023-05-10T00:17:42;0.20;;;0.20;;
8040;SDS011;4063;48.140;10.250;2023-05-10T00:20:08;0.20;;;0.20;;
8040;SDS011;4063;48.140;10.250;2023-05-10T00:22:34;0.20;;;0.20;;
8040;SDS011;4063;48.140;10.250;2023-05-10T00:25:00;0.17;;;0.17;;
8040;SDS011;4063;48.140;10.250;2023-05-10T00:27:29;0.20;;;0.20;;
8040;SDS011;4063;48.140;10.250;2023-05-10T00:29:55;0.17;;;0.17;;
8040;SDS011;4063;48.140;10.250;2023-05-10T00:32:21;0.20;;;0.20;;
8040;SDS011;4063;48.140;10.250;2023-05-10T00:34:47;0.17;;;0.17;;
8040;SDS011;4063;48.140;10.250;2023-05-10T00:37:13;0.20;;;0.20;;
8040;SDS011;4063;48.140;10.250;2023-05-10T00:39:39;0.20;;;0.20;;
8040;SDS011;4063;48.140;10.250;2023-05-10T00:42:05;0.20;;;0.20;;
8040;SDS011;4063;48.140;10.250;2023-05-10T00:44:31;0.20;;;0.20;;
8040;SDS011;4063;48.140;10.250;2023-05-10T00:47:00;0.20;;;0.20;;
8040;SDS011;4063;48.140;10.250;2023-05-10T00:49:26;0.20;;;0.20;;
8040;SDS011;4063;48.140;10.250;2023-05-10T00:51:53;0.20;;;0.20;;
8040;SDS011;4063;48.140;10.250;2023-05-10T00:54:19;0.20;;;0.20;;
8040;SDS011;4063;48.140;10.250;2023-05-10T00:56:45;0.20;;;0.20;;
8040;SDS011;4063;48.140;10.250;2023-05-10T00:59:14;0.20;;;0.20;;
8040;SDS011;4063;48.140;10.250;2023-05-10T01:01:41;0.20;;;0.20;;
8040;SDS011;4063;48.140;10.250;2023-05-10T01:04:08;0.20;;;0.20;;
8040;SDS011;4063;48.140;10.250;2023-05-10T01:06:35;0.20;;;0.20;;
8040;SDS011;4063;48.140;10.250;2023-05-10T01:09:01;0.20;;;0.20;;
8040;SDS011;4063;48.140;10.250;2023-05-10T01:11:27;0.20;;;0.20;;
8040;SDS011;4063;48.140;10.250;2023-05-10T01:13:56;0.20;;;0.20;;
8040;SDS011;4063;48.140;10.250;2023-05-10T01:16:23;0.25;;;0.25;;
8040;SDS011;4063;48.140;10.250;2023-05-10T01:18:49;0.20;;;0.20;;
8040;SDS011;4063;48.140;10.250;2023-05-10T01:21:27;0.25;;;0.25;;
8040;SDS011;4063;48.140;10.250;2023-05-10T01:24:03;0.20;;;0.20;;
8040;SDS011;4063;48.140;10.250;2023-05-10T01:37:09;0.20;;;0.20;;
8040;SDS011;4063;48.140;10.250;2023-05-10T01:39:39;0.20;;;0.20;;
8040;SDS011;4063;48.140;10.250;2023-05-10T01:42:29;0.20;;;0.20;;
8040;SDS011;4063;48.140;10.250;2023-05-10T01:45:00;0.20;;;0.20;;
8040;SDS011;4063;48.140;10.250;2023-05-10T01:47:31;0.20;;;0.20;;
8040;SDS011;4063;48.140;10.250;2023-05-10T01:50:01;0.20;;;0.20;;
8040;SDS011;4063;48.140;10.250;2023-05-10T01:52:36;0.20;;;0.20;;
8040;SDS011;4063;48.140;10.250;2023-05-10T01:55:06;0.20;;;0.20;;
8040;SDS011;4063;48.140;10.250;2023-05-10T01:57:34;0.20;;;0.20;;
8040;SDS011;4063;48.140;10.250;2023-05-10T02:00:02;0.20;;;0.20;;
8040;SDS011;4063;48.140;10.250;2023-05-10T02:02:29;0.20;;;0.20;;
8040;SDS011;4063;48.140;10.250;2023-05-10T02:04:55;0.20;;;0.20;;
8040;SDS011;4063;48.140;10.250;2023-05-10T02:07:23;0.20;;;0.20;;
8040;SDS011;4063;48.140;10.250;2023-05-10T02:09:49;0.20;;;0.20;;
8040;SDS011;4063;48.140;10.250;2023-05-10T02:12:15;0.22;;;0.22;;
8040;SDS011;4063;48.140;10.250;2023-05-10T02:14:42;0.82;;;0.68;;
8040;SDS011;4063;48.140;10.250;2023-05-10T02:17:09;0.20;;;0.20;;
8040;SDS011;4063;48.140;10.250;2023-05-10T02:19:38;0.20;;;0.20;;
8040;SDS011;4063;48.140;10.250;2023-05-10T02:22:05;0.20;;;0.20;;
8040;SDS011;4063;48.140;10.250;2023-05-10T02:24:33;0.20;;;0.20;;
8040;SDS011;4063;48.140;10.250;2023-05-10T02:27:00;0.20;;;0.20;;
8040;SDS011;4063;48.140;10.250;2023-05-10T02:29:28;0.20;;;0.20;;
8040;SDS011;4063;48.140;10.250;2023-05-10T02:31:54;0.20;;;0.20;;
8040;SDS011;4063;48.140;10.250;2023-05-10T02:34:21;0.20;;;0.20;;
8040;SDS011;4063;48.140;10.250;2023-05-10T02:36:47;0.20;;;0.20;;
8040;SDS011;4063;48.140;10.250;2023-05-10T02:39:14;0.22;;;0.22;;
8040;SDS011;4063;48.140;10.250;2023-05-10T02:41:40;0.20;;;0.20;;
8040;SDS011;4063;48.140;10.250;2023-05-10T02:44:06;0.20;;;0.20;;
8040;SDS011;4063;48.140;10.250;2023-05-10T02:46:34;0.20;;;0.20;;
8040;SDS011;4063;48.140;10.250;2023-05-10T02:49:00;0.20;;;0.20;;
8040;SDS011;4063;48.140;10.250;2023-05-10T02:51:27;0.25;;;0.25;;
8040;SDS011;4063;48.140;10.250;2023-05-10T02:53:54;0.20;;;0.20;;
8040;SDS011;4063;48.140;10.250;2023-05-10T02:56:24;0.10;;;0.10;;
8040;SDS011;4063;48.140;10.250;2023-05-10T02:58:51;0.22;;;0.22;;
8040;SDS011;4063;48.140;10.250;2023-05-10T03:01:17;0.20;;;0.20;;
8040;SDS011;4063;48.140;10.250;2023-05-10T03:03:43;0.20;;;0.20;;
8040;SDS011;4063;48.140;10.250;2023-05-10T03:06:09;0.20;;;0.20;;
8040;SDS011;4063;48.140;10.250;2023-05-10T03:08:35;0.20;;;0.20;;
8040;SDS011;4063;48.140;10.250;2023-05-10T03:11:08;0.30;;;0.30;;
8040;SDS011;4063;48.140;10.250;2023-05-10T03:13:39;0.23;;;0.23;;
8040;SDS011;4063;48.140;10.250;2023-05-10T03:16:10;0.20;;;0.20;;
8040;SDS011;4063;48.140;10.250;2023-05-10T03:18:44;0.20;;;0.20;;
8040;SDS011;4063;48.140;10.250;2023-05-10T03:21:13;0.20;;;0.20;;
8040;SDS011;4063;48.140;10.250;2023-05-10T03:23:43;0.20;;;0.20;;
8040;SDS011;4063;48.140;10.250;2023-05-10T03:26:09;0.10;;;0.10;;
8040;SDS011;4063;48.140;10.250;2023-05-10T03:28:35;0.20;;;0.20;;
8040;SDS011;4063;48.140;10.250;2023-05-10T03:31:02;0.20;;;0.20;;
8040;SDS011;4063;48.140;10.250;2023-05-10T03:33:28;0.20;;;0.20;;
8040;SDS011;4063;48.140;10.250;2023-05-10T03:35:54;0.20;;;0.20;;
8040;SDS011;4063;48.140;10.250;2023-05-10T03:38:20;0.30;;;0.30;;
8040;SDS011;4063;48.140;10.250;2023-05-10T03:40:46;0.28;;;0.28;;
8040;SDS011;4063;48.140;10.250;2023-05-10T03:43:12;0.30;;;0.30;;
8040;SDS011;4063;48.140;10.250;2023-05-10T03:45:38;0.20;;;0.20;;
8040;SDS011;4063;48.140;10.250;2023-05-10T03:48:04;0.20;;;0.20;;
8040;SDS011;4063;48.140;10.250;2023-05-10T03:50:30;0.20;;;0.20;;
8040;SDS011;4063;48.140;10.250;2023-05-10T03:52:56;0.27;;;0.27;;
8040;SDS011;4063;48.140;10.250;2023-05-10T03:55:23;0.20;;;0.20;;
8040;SDS011;4063;48.140;10.250;2023-05-10T03:57:49;0.20;;;0.20;;
8040;SDS011;4063;48.140;10.250;2023-05-10T04:00:15;0.20;;;0.20;;
8040;SDS011;4063;48.140;10.250;2023-05-10T04:02:41;0.20;;;0.20;;
8040;SDS011;4063;48.140;10.250;2023-05-10T04:05:07;0.23;;;0.23;;
8040;SDS011;4063;48.140;10.250;2023-05-10T04:07:33;0.30;;;0.30;;
8040;SDS011;4063;48.140;10.250;2023-05-10T04:09:59;0.27;;;0.27;;
8040;SDS011;4063;48.140;10.250;2023-05-10T04:12:28;0.27;;;0.27;;
8040;SDS011;4063;48.140;10.250;2023-05-10T04:14:54;0.20;;;0.20;;
8040;SDS011;4063;48.140;10.250;2023-05-10T04:17:20;0.17;;;0.17;;
8040;SDS011;4063;48.140;10.250;2023-05-10T04:19:46;0.20;;;0.20;;
8040;SDS011;4063;48.140;10.250;2023-05-10T04:22:12;0.20;;;0.20;;
8040;SDS011;4063;48.140;10.250;2023-05-10T04:24:38;0.20;;;0.20;;
8040;SDS011;4063;48.140;10.250;2023-05-10T04:27:04;0.30;;;0.30;;
8040;SDS011;4063;48.140;10.250;2023-05-10T04:29:29;0.20;;;0.20;;
8040;SDS011;4063;48.140;10.250;2023-05-10T04:31:55;0.20;;;0.20;;
8040;SDS011;4063;48.140;10.250;2023-05-10T04:34:21;0.20;;;0.20;;
8040;SDS011;4063;48.140;10.250;2023-05-10T04:36:47;0.20;;;0.20;;
8040;SDS011;4063;48.140;10.250;2023-05-10T04:39:13;0.20;;;0.20;;
8040;SDS011;4063;48.140;10.250;2023-05-10T04:41:39;0.23;;;0.23;;
8040;SDS011;4063;48.140;10.250;2023-05-10T04:44:05;0.20;;;0.20;;
8040;SDS011;4063;48.140;10.250;2023-05-10T04:46:31;0.20;;;0.20;;
8040;SDS011;4063;48.140;10.250;2023-05-10T04:48:57;0.20;;;0.20;;
8040;SDS011;4063;48.140;10.250;2023-05-10T04:51:23;0.20;;;0.20;;
8040;SDS011;4063;48.140;10.250;2023-05-10T04:53:49;0.13;;;0.13;;
8040;SDS011;4063;48.140;10.250;2023-05-10T04:56:15;0.20;;;0.20;;
8040;SDS011;4063;48.140;10.250;2023-05-10T04:58:41;0.20;;;0.20;;
8040;SDS011;4063;48.140;10.250;2023-05-10T05:01:08;0.20;;;0.20;;
8040;SDS011;4063;48.140;10.250;2023-05-10T05:03:35;0.20;;;0.20;;
8040;SDS011;4063;48.140;10.250;2023-05-10T05:06:01;0.13;;;0.13;;
8040;SDS011;4063;48.140;10.250;2023-05-10T05:08:27;0.30;;;0.30;;
8040;SDS011;4063;48.140;10.250;2023-05-10T05:10:53;0.20;;;0.20;;
8040;SDS011;4063;48.140;10.250;2023-05-10T05:13:19;0.20;;;0.20;;
8040;SDS011;4063;48.140;10.250;2023-05-10T05:15:45;0.20;;;0.20;;
8040;SDS011;4063;48.140;10.250;2023-05-10T05:18:11;2.45;;;0.63;;
8040;SDS011;4063;48.140;10.250;2023-05-10T05:20:39;1.33;;;1.20;;
8040;SDS011;4063;48.140;10.250;2023-05-10T05:23:05;1.33;;;1.30;;
8040;SDS011;4063;48.140;10.250;2023-05-10T05:25:31;2.65;;;1.15;;
8040;SDS011;4063;48.140;10.250;2023-05-10T05:27:57;2.93;;;1.70;;
8040;SDS011;4063;48.140;10.250;2023-05-10T05:30:23;4.32;;;1.63;;
8040;SDS011;4063;48.140;10.250;2023-05-10T05:32:49;2.40;;;1.30;;
8040;SDS011;4063;48.140;10.250;2023-05-10T05:35:15;3.20;;;1.55;;
8040;SDS011;4063;48.140;10.250;2023-05-10T05:37:41;1.48;;;1.38;;
8040;SDS011;4063;48.140;10.250;2023-05-10T05:40:07;3.45;;;1.67;;
8040;SDS011;4063;48.140;10.250;2023-05-10T05:42:33;2.00;;;1.80;;
8040;SDS011;4063;48.140;10.250;2023-05-10T05:44:59;1.30;;;1.20;;
8040;SDS011;4063;48.140;10.250;2023-05-10T05:47:25;1.73;;;1.23;;
8040;SDS011;4063;48.140;10.250;2023-05-10T05:49:51;3.60;;;1.47;;
8040;SDS011;4063;48.140;10.250;2023-05-10T05:52:17;1.60;;;1.47;;
8040;SDS011;4063;48.140;10.250;2023-05-10T05:54:43;2.90;;;1.50;;
8040;SDS011;4063;48.140;10.250;2023-05-10T05:57:09;1.50;;;1.40;;
8040;SDS011;4063;48.140;10.250;2023-05-10T05:59:35;1.58;;;1.33;;
8040;SDS011;4063;48.140;10.250;2023-05-10T06:02:06;2.15;;;1.42;;
8040;SDS011;4063;48.140;10.250;2023-05-10T06:04:32;1.40;;;1.30;;
8040;SDS011;4063;48.140;10.250;2023-05-10T06:06:58;2.20;;;1.30;;
8040;SDS011;4063;48.140;10.250;2023-05-10T06:09:24;1.67;;;1.58;;
8040;SDS011;4063;48.140;10.250;2023-05-10T06:11:50;1.52;;;1.40;;
8040;SDS011;4063;48.140;10.250;2023-05-10T06:14:16;3.90;;;1.50;;
8040;SDS011;4063;48.140;10.250;2023-05-10T06:16:42;2.67;;;1.55;;
8040;SDS011;4063;48.140;10.250;2023-05-10T06:19:08;1.58;;;1.40;;
8040;SDS011;4063;48.140;10.250;2023-05-10T06:21:34;1.63;;;1.35;;
8040;SDS011;4063;48.140;10.250;2023-05-10T06:24:00;2.08;;;1.50;;
8040;SDS011;4063;48.140;10.250;2023-05-10T06:26:27;1.90;;;1.40;;
8040;SDS011;4063;48.140;10.250;2023-05-10T06:28:53;2.67;;;1.33;;
8040;SDS011;4063;48.140;10.250;2023-05-10T06:31:19;1.70;;;1.60;;
8040;SDS011;4063;48.140;10.250;2023-05-10T06:33:45;2.58;;;1.85;;
8040;SDS011;4063;48.140;10.250;2023-05-10T06:36:11;3.03;;;1.50;;
8040;SDS011;4063;48.140;10.250;2023-05-10T06:38:38;3.55;;;1.55;;
8040;SDS011;4063;48.140;10.250;2023-05-10T06:41:04;2.13;;;1.60;;
8040;SDS011;4063;48.140;10.250;2023-05-10T06:43:30;1.30;;;1.20;;
8040;SDS011;4063;48.140;10.250;2023-05-10T06:45:56;2.08;;;1.50;;
8040;SDS011;4063;48.140;10.250;2023-05-10T06:48:22;1.60;;;1.50;;
8040;SDS011;4063;48.140;10.250;2023-05-10T06:50:48;1.85;;;1.27;;
8040;SDS011;4063;48.140;10.250;2023-05-10T06:53:14;2.50;;;1.35;;
8040;SDS011;4063;48.140;10.250;2023-05-10T06:55:40;3.42;;;1.65;;
8040;SDS011;4063;48.140;10.250;2023-05-10T06:58:06;1.55;;;1.40;;
8040;SDS011;4063;48.140;10.250;2023-05-10T07:00:32;2.70;;;1.80;;
8040;SDS011;4063;48.140;10.250;2023-05-10T07:02:58;2.20;;;1.30;;
8040;SDS011;4063;48.140;10.250;2023-05-10T07:05:24;1.58;;;1.25;;
8040;SDS011;4063;48.140;10.250;2023-05-10T07:07:52;1.52;;;1.23;;
8040;SDS011;4063;48.140;10.250;2023-05-10T07:10:18;8.10;;;2.00;;
8040;SDS011;4063;48.140;10.250;2023-05-10T07:12:44;1.85;;;1.40;;
8040;SDS011;4063;48.140;10.250;2023-05-10T07:15:10;1.83;;;1.25;;
8040;SDS011;4063;48.140;10.250;2023-05-10T07:17:36;1.80;;;1.20;;
8040;SDS011;4063;48.140;10.250;2023-05-10T07:20:02;2.40;;;1.42;;
8040;SDS011;4063;48.140;10.250;2023-05-10T07:22:28;1.92;;;1.40;;
8040;SDS011;4063;48.140;10.250;2023-05-10T07:24:54;3.05;;;2.00;;
8040;SDS011;4063;48.140;10.250;2023-05-10T07:27:20;1.20;;;1.10;;
8040;SDS011;4063;48.140;10.250;2023-05-10T07:29:46;1.95;;;1.40;;
8040;SDS011;4063;48.140;10.250;2023-05-10T07:32:12;1.23;;;1.13;;
8040;SDS011;4063;48.140;10.250;2023-05-10T07:34:38;3.92;;;2.35;;
8040;SDS011;4063;48.140;10.250;2023-05-10T07:37:04;1.35;;;1.20;;
8040;SDS011;4063;48.140;10.250;2023-05-10T07:39:31;2.35;;;1.27;;
8040;SDS011;4063;48.140;10.250;2023-05-10T07:41:57;3.60;;;2.42;;
8040;SDS011;4063;48.140;10.250;2023-05-10T07:44:23;3.17;;;1.77;;
8040;SDS011;4063;48.140;10.250;2023-05-10T07:46:49;2.47;;;1.80;;
8040;SDS011;4063;48.140;10.250;2023-05-10T07:49:15;2.72;;;1.75;;
8040;SDS011;4063;48.140;10.250;2023-05-10T07:51:41;2.17;;;1.30;;
8040;SDS011;4063;48.140;10.250;2023-05-10T07:54:07;3.63;;;1.70;;
8040;SDS011;4063;48.140;10.250;2023-05-10T07:56:33;3.38;;;2.50;;
8040;SDS011;4063;48.140;10.250;2023-05-10T07:58:59;5.72;;;3.88;;
8040;SDS011;4063;48.140;10.250;2023-05-10T08:01:26;5.63;;;2.15;;
8040;SDS011;4063;48.140;10.250;2023-05-10T08:03:52;5.22;;;2.83;;
8040;SDS011;4063;48.140;10.250;2023-05-10T08:06:18;1.67;;;1.52;;
8040;SDS011;4063;48.140;10.250;2023-05-10T08:08:45;1.50;;;1.20;;
8040;SDS011;4063;48.140;10.250;2023-05-10T08:11:14;3.65;;;1.85;;
8040;SDS011;4063;48.140;10.250;2023-05-10T08:13:40;2.20;;;1.30;;
8040;SDS011;4063;48.140;10.250;2023-05-10T08:16:06;3.00;;;2.40;;
8040;SDS011;4063;48.140;10.250;2023-05-10T08:18:32;4.75;;;2.72;;
8040;SDS011;4063;48.140;10.250;2023-05-10T08:20:58;1.40;;;1.20;;
8040;SDS011;4063;48.140;10.250;2023-05-10T08:23:24;5.28;;;2.78;;
8040;SDS011;4063;48.140;10.250;2023-05-10T08:25:50;4.05;;;1.90;;
8040;SDS011;4063;48.140;10.250;2023-05-10T08:28:16;3.78;;;2.58;;
8040;SDS011;4063;48.140;10.250;2023-05-10T08:30:42;2.38;;;1.83;;
8040;SDS011;4063;48.140;10.250;2023-05-10T08:33:08;4.97;;;3.35;;
8040;SDS011;4063;48.140;10.250;2023-05-10T08:35:34;5.30;;;3.92;;
8040;SDS011;4063;48.140;10.250;2023-05-10T08:38:00;3.97;;;2.72;;
8040;SDS011;4063;48.140;10.250;2023-05-10T08:40:26;2.60;;;1.65;;
8040;SDS011;4063;48.140;10.250;2023-05-10T08:42:59;5.03;;;2.28;;
8040;SDS011;4063;48.140;10.250;2023-05-10T08:45:27;2.28;;;1.45;;
8040;SDS011;4063;48.140;10.250;2023-05-10T08:47:57;3.30;;;2.40;;
8040;SDS011;4063;48.140;10.250;2023-05-10T08:50:23;4.32;;;2.42;;
8040;SDS011;4063;48.140;10.250;2023-05-10T08:52:50;2.05;;;1.23;;
8040;SDS011;4063;48.140;10.250;2023-05-10T08:55:18;6.50;;;2.92;;
8040;SDS011;4063;48.140;10.250;2023-05-10T08:57:44;3.78;;;2.47;;
8040;SDS011;4063;48.140;10.250;2023-05-10T09:00:11;7.10;;;3.08;;
8040;SDS011;4063;48.140;10.250;2023-05-10T09:02:37;0.85;;;0.85;;
8040;SDS011;4063;48.140;10.250;2023-05-10T09:05:03;7.63;;;4.20;;
8040;SDS011;4063;48.140;10.250;2023-05-10T09:07:29;1.38;;;1.20;;
8040;SDS011;4063;48.140;10.250;2023-05-10T09:09:55;7.15;;;2.67;;
8040;SDS011;4063;48.140;10.250;2023-05-10T09:12:22;5.57;;;3.00;;
8040;SDS011;4063;48.140;10.250;2023-05-10T09:14:48;7.15;;;4.35;;
8040;SDS011;4063;48.140;10.250;2023-05-10T09:17:16;5.40;;;2.50;;
8040;SDS011;4063;48.140;10.250;2023-05-10T09:19:42;4.07;;;2.78;;
8040;SDS011;4063;48.140;10.250;2023-05-10T09:22:08;2.33;;;2.00;;
8040;SDS011;4063;48.140;10.250;2023-05-10T09:24:35;4.43;;;1.98;;
8040;SDS011;4063;48.140;10.250;2023-05-10T09:27:01;4.75;;;2.40;;
8040;SDS011;4063;48.140;10.250;2023-05-10T09:29:38;4.30;;;1.85;;
8040;SDS011;4063;48.140;10.250;2023-05-10T09:32:04;1.20;;;1.10;;
8040;SDS011;4063;48.140;10.250;2023-05-10T09:34:31;1.67;;;1.27;;
8040;SDS011;4063;48.140;10.250;2023-05-10T09:36:59;1.88;;;1.33;;
8040;SDS011;4063;48.140;10.250;2023-05-10T09:39:35;2.65;;;1.80;;
8040;SDS011;4063;48.140;10.250;2023-05-10T09:42:05;4.88;;;2.15;;
8040;SDS011;4063;48.140;10.250;2023-05-10T09:44:32;4.85;;;2.90;;
8040;SDS011;4063;48.140;10.250;2023-05-10T09:46:58;5.55;;;3.60;;
8040;SDS011;4063;48.140;10.250;2023-05-10T09:49:24;3.08;;;2.05;;
8040;SDS011;4063;48.140;10.250;2023-05-10T09:51:59;3.20;;;1.50;;
8040;SDS011;4063;48.140;10.250;2023-05-10T09:54:25;2.58;;;1.13;;
8040;SDS011;4063;48.140;10.250;2023-05-10T09:56:51;8.15;;;4.50;;
8040;SDS011;4063;48.140;10.250;2023-05-10T09:59:17;5.97;;;3.10;;
8040;SDS011;4063;48.140;10.250;2023-05-10T10:01:49;3.22;;;2.38;;
8040;SDS011;4063;48.140;10.250;2023-05-10T10:04:15;1.88;;;1.50;;
8040;SDS011;4063;48.140;10.250;2023-05-10T10:06:42;3.15;;;1.75;;
8040;SDS011;4063;48.140;10.250;2023-05-10T10:09:09;4.45;;;2.47;;
8040;SDS011;4063;48.140;10.250;2023-05-10T10:11:35;4.05;;;2.30;;
8040;SDS011;4063;48.140;10.250;2023-05-10T10:14:01;2.08;;;1.38;;
8040;SDS011;4063;48.140;10.250;2023-05-10T10:16:28;2.22;;;1.58;;
8040;SDS011;4063;48.140;10.250;2023-05-10T10:18:55;4.57;;;2.90;;
8040;SDS011;4063;48.140;10.250;2023-05-10T10:21:21;4.45;;;1.40;;
8040;SDS011;4063;48.140;10.250;2023-05-10T10:23:47;2.45;;;1.70;;
8040;SDS011;4063;48.140;10.250;2023-05-10T10:26:13;2.53;;;2.20;;
8040;SDS011;4063;48.140;10.250;2023-05-10T10:31:17;2.38;;;1.20;;
8040;SDS011;4063;48.140;10.250;2023-05-10T10:34:06;1.48;;;1.38;;
8040;SDS011;4063;48.140;10.250;2023-05-10T10:36:32;5.88;;;2.80;;
8040;SDS011;4063;48.140;10.250;2023-05-10T10:39:00;3.22;;;2.13;;
8040;SDS011;4063;48.140;10.250;2023-05-10T10:46:58;1.33;;;1.08;;
8040;SDS011;4063;48.140;10.250;2023-05-10T10:49:24;0.80;;;0.80;;
8040;SDS011;4063;48.140;10.250;2023-05-10T10:54:35;2.92;;;2.13;;
8040;SDS011;4063;48.140;10.250;2023-05-10T10:57:10;1.85;;;1.17;;
8040;SDS011;4063;48.140;10.250;2023-05-10T10:59:41;2.72;;;1.98;;
8040;SDS011;4063;48.140;10.250;2023-05-10T11:02:08;5.30;;;3.63;;
8040;SDS011;4063;48.140;10.250;2023-05-10T11:04:43;6.80;;;1.77;;
8040;SDS011;4063;48.140;10.250;2023-05-10T11:07:17;7.78;;;2.47;;
8040;SDS011;4063;48.140;10.250;2023-05-10T11:09:43;7.35;;;3.40;;
8040;SDS011;4063;48.140;10.250;2023-05-10T11:12:10;12.18;;;6.00;;
8040;SDS011;4063;48.140;10.250;2023-05-10T11:14:36;6.33;;;3.27;;
8040;SDS011;4063;48.140;10.250;2023-05-10T11:17:02;8.60;;;3.70;;
8040;SDS011;4063;48.140;10.250;2023-05-10T11:20:06;2.00;;;1.70;;
8040;SDS011;4063;48.140;10.250;2023-05-10T11:22:48;3.42;;;1.10;;
8040;SDS011;4063;48.140;10.250;2023-05-10T11:25:15;1.07;;;0.87;;
8040;SDS011;4063;48.140;10.250;2023-05-10T11:27:41;1.67;;;1.00;;
8040;SDS011;4063;48.140;10.250;2023-05-10T11:30:07;2.30;;;1.00;;
8040;SDS011;4063;48.140;10.250;2023-05-10T11:32:36;1.10;;;1.00;;
8040;SDS011;4063;48.140;10.250;2023-05-10T11:35:12;2.75;;;1.10;;
8040;SDS011;4063;48.140;10.250;2023-05-10T11:37:41;1.80;;;1.27;;
8040;SDS011;4063;48.140;10.250;2023-05-10T11:40:08;3.30;;;1.23;;
8040;SDS011;4063;48.140;10.250;2023-05-10T11:42:37;1.75;;;1.20;;
8040;SDS011;4063;48.140;10.250;2023-05-10T11:45:04;2.20;;;1.20;;
8040;SDS011;4063;48.140;10.250;2023-05-10T11:47:30;2.23;;;1.30;;
8040;SDS011;4063;48.140;10.250;2023-05-10T11:49:56;3.23;;;1.40;;
8040;SDS011;4063;48.140;10.250;2023-05-10T11:52:22;2.60;;;1.60;;
8040;SDS011;4063;48.140;10.250;2023-05-10T11:54:52;2.88;;;2.05;;
8040;SDS011;4063;48.140;10.250;2023-05-10T11:57:18;2.25;;;1.38;;
8040;SDS011;4063;48.140;10.250;2023-05-10T11:59:45;1.97;;;1.40;;
8040;SDS011;4063;48.140;10.250;2023-05-10T12:02:12;3.65;;;1.40;;
8040;SDS011;4063;48.140;10.250;2023-05-10T12:04:38;3.47;;;1.43;;
8040;SDS011;4063;48.140;10.250;2023-05-10T12:07:04;2.78;;;1.65;;
8040;SDS011;4063;48.140;10.250;2023-05-10T12:09:30;1.47;;;1.30;;
8040;SDS011;4063;48.140;10.250;2023-05-10T12:11:56;2.67;;;1.65;;
8040;SDS011;4063;48.140;10.250;2023-05-10T12:14:22;3.13;;;1.75;;
8040;SDS011;4063;48.140;10.250;2023-05-10T12:16:49;2.03;;;1.38;;
8040;SDS011;4063;48.140;10.250;2023-05-10T12:19:19;1.67;;;1.42;;
8040;SDS011;4063;48.140;10.250;2023-05-10T12:21:48;2.55;;;1.75;;
8040;SDS011;4063;48.140;10.250;2023-05-10T12:24:14;2.47;;;1.40;;
8040;SDS011;4063;48.140;10.250;2023-05-10T12:26:45;2.40;;;1.55;;
8040;SDS011;4063;48.140;10.250;2023-05-10T12:29:11;1.80;;;1.70;;
8040;SDS011;4063;48.140;10.250;2023-05-10T12:31:54;3.25;;;1.70;;
8040;SDS011;4063;48.140;10.250;2023-05-10T12:34:38;2.35;;;1.60;;
8040;SDS011;4063;48.140;10.250;2023-05-10T12:37:04;3.20;;;1.70;;
8040;SDS011;4063;48.140;10.250;2023-05-10T12:39:39;3.35;;;1.45;;
8040;SDS011;4063;48.140;10.250;2023-05-10T12:42:06;1.40;;;1.30;;
8040;SDS011;4063;48.140;10.250;2023-05-10T12:44:32;1.52;;;1.33;;
8040;SDS011;4063;48.140;10.250;2023-05-10T12:46:58;2.40;;;1.88;;
8040;SDS011;4063;48.140;10.250;2023-05-10T12:49:24;1.33;;;1.23;;
8040;SDS011;4063;48.140;10.250;2023-05-10T12:51:50;4.43;;;1.48;;
8040;SDS011;4063;48.140;10.250;2023-05-10T12:54:16;3.05;;;1.30;;
8040;SDS011;4063;48.140;10.250;2023-05-10T12:56:42;2.55;;;1.60;;
8040;SDS011;4063;48.140;10.250;2023-05-10T12:59:08;2.17;;;1.60;;
8040;SDS011;4063;48.140;10.250;2023-05-10T13:01:34;2.95;;;1.50;;
8040;SDS011;4063;48.140;10.250;2023-05-10T13:04:00;2.70;;;1.83;;
8040;SDS011;4063;48.140;10.250;2023-05-10T13:06:26;1.75;;;1.65;;
8040;SDS011;4063;48.140;10.250;2023-05-10T13:08:52;1.95;;;1.70;;
8040;SDS011;4063;48.140;10.250;2023-05-10T13:11:18;4.05;;;2.20;;
8040;SDS011;4063;48.140;10.250;2023-05-10T13:13:45;2.83;;;2.03;;
8040;SDS011;4063;48.140;10.250;2023-05-10T13:16:11;2.38;;;2.00;;
8040;SDS011;4063;48.140;10.250;2023-05-10T13:18:37;2.40;;;1.70;;
8040;SDS011;4063;48.140;10.250;2023-05-10T13:21:03;2.88;;;1.85;;
8040;SDS011;4063;48.140;10.250;2023-05-10T13:23:30;2.90;;;1.83;;
8040;SDS011;4063;48.140;10.250;2023-05-10T13:25:56;2.00;;;1.48;;
8040;SDS011;4063;48.140;10.250;2023-05-10T13:28:22;3.25;;;1.60;;
8040;SDS011;4063;48.140;10.250;2023-05-10T13:30:48;2.28;;;1.73;;
8040;SDS011;4063;48.140;10.250;2023-05-10T13:33:14;3.30;;;1.40;;
8040;SDS011;4063;48.140;10.250;2023-05-10T13:35:40;2.05;;;1.58;;
8040;SDS011;4063;48.140;10.250;2023-05-10T13:38:06;3.05;;;1.70;;
8040;SDS011;4063;48.140;10.250;2023-05-10T13:40:32;3.03;;;1.65;;
8040;SDS011;4063;48.140;10.250;2023-05-10T13:42:58;2.72;;;1.90;;
8040;SDS011;4063;48.140;10.250;2023-05-10T13:45:25;2.00;;;1.70;;
8040;SDS011;4063;48.140;10.250;2023-05-10T13:47:51;2.88;;;1.60;;
8040;SDS011;4063;48.140;10.250;2023-05-10T13:50:17;1.90;;;1.40;;
8040;SDS011;4063;48.140;10.250;2023-05-10T13:52:43;2.38;;;1.35;;
8040;SDS011;4063;48.140;10.250;2023-05-10T13:55:09;2.17;;;1.63;;
8040;SDS011;4063;48.140;10.250;2023-05-10T13:57:37;1.73;;;1.63;;
8040;SDS011;4063;48.140;10.250;2023-05-10T14:00:03;2.53;;;1.60;;
8040;SDS011;4063;48.140;10.250;2023-05-10T14:02:29;2.78;;;1.40;;
8040;SDS011;4063;48.140;10.250;2023-05-10T14:04:55;1.77;;;1.33;;
8040;SDS011;4063;48.140;10.250;2023-05-10T14:07:21;1.92;;;1.30;;
8040;SDS011;4063;48.140;10.250;2023-05-10T14:09:47;2.47;;;1.67;;
8040;SDS011;4063;48.140;10.250;2023-05-10T14:12:13;3.25;;;1.83;;
8040;SDS011;4063;48.140;10.250;2023-05-10T14:14:39;3.40;;;1.83;;
8040;SDS011;4063;48.140;10.250;2023-05-10T14:17:05;2.67;;;2.00;;
8040;SDS011;4063;48.140;10.250;2023-05-10T14:19:31;2.22;;;1.80;;
8040;SDS011;4063;48.140;10.250;2023-05-10T14:21:58;2.42;;;2.00;;
8040;SDS011;4063;48.140;10.250;2023-05-10T14:24:24;4.43;;;1.80;;
8040;SDS011;4063;48.140;10.250;2023-05-10T14:26:51;5.35;;;2.55;;
8040;SDS011;4063;48.140;10.250;2023-05-10T14:29:19;4.68;;;3.00;;
8040;SDS011;4063;48.140;10.250;2023-05-10T14:31:45;3.15;;;2.28;;
8040;SDS011;4063;48.140;10.250;2023-05-10T14:34:11;5.30;;;3.33;;
8040;SDS011;4063;48.140;10.250;2023-05-10T14:36:37;1.60;;;1.35;;
8040;SDS011;4063;48.140;10.250;2023-05-10T14:39:03;5.78;;;1.67;;
8040;SDS011;4063;48.140;10.250;2023-05-10T14:41:29;2.10;;;1.43;;
8040;SDS011;4063;48.140;10.250;2023-05-10T14:43:56;2.08;;;1.83;;
8040;SDS011;4063;48.140;10.250;2023-05-10T14:46:22;2.28;;;1.70;;
8040;SDS011;4063;48.140;10.250;2023-05-10T14:48:48;1.75;;;1.50;;
8040;SDS011;4063;48.140;10.250;2023-05-10T14:51:14;2.33;;;1.50;;
8040;SDS011;4063;48.140;10.250;2023-05-10T14:53:40;4.07;;;1.20;;
8040;SDS011;4063;48.140;10.250;2023-05-10T14:56:06;1.05;;;0.93;;
8040;SDS011;4063;48.140;10.250;2023-05-10T14:58:32;2.20;;;1.10;;
8040;SDS011;4063;48.140;10.250;2023-05-10T15:00:58;1.10;;;1.10;;
8040;SDS011;4063;48.140;10.250;2023-05-10T15:03:24;3.42;;;1.52;;
8040;SDS011;4063;48.140;10.250;2023-05-10T15:05:50;1.87;;;1.30;;
8040;SDS011;4063;48.140;10.250;2023-05-10T15:08:16;2.93;;;1.70;;
8040;SDS011;4063;48.140;10.250;2023-05-10T15:10:43;2.65;;;2.00;;
8040;SDS011;4063;48.140;10.250;2023-05-10T15:13:09;2.30;;;1.57;;
8040;SDS011;4063;48.140;10.250;2023-05-10T15:15:35;1.50;;;1.40;;
8040;SDS011;4063;48.140;10.250;2023-05-10T15:18:01;4.33;;;2.30;;
8040;SDS011;4063;48.140;10.250;2023-05-10T15:20:27;3.07;;;1.90;;